Aérodrome :
LOGIN :

S'inscrire | Disclaimer

   EN    FR    IT 

 










Légende :    VFR   VFR Marginal   IFR   IFR Intensif   IFR Très Intensif
Visi : 
Plafond : 
>= 8 km
>= 3000ft
5 à 8 km
1000 à 3000 ft
1500m à 5 km
500 à 1000 ft
800 à 1500m
200 à 500 ft
< 800m
< 200 ft
Symboles :   Orages  Brouillard  Fortes neiges  Fortes précipitations  Vent > 20 kt
SIGMETs :   Divers  Orages  Givrage  Turbulence  Onde Orograph.  Cendres Volcan.







- Altitude de l'aérodrome : 13 ft
- Code IATA : CEQ
- Voir les cartes d'approche


LFMD - Cannes Mandelieu

DERNIER METAR :
  • 011730Z AUTO 26017KT 230V290 CAVOK 14/01 Q1013 BECMG 26015G25KT

METARs EXPIRÉS :
  • 011700Z AUTO 26016KT 220V290 CAVOK 14/02 Q1013 BECMG 26015G25KT
  • 011630Z AUTO 25017G30KT 220V280 CAVOK 15/01 Q1013 NOSIG
  • 011600Z AUTO 25018KT CAVOK 16/02 Q1012 BECMG 26015G25KT
  • 011530Z AUTO 25017KT 220V280 CAVOK 17/03 Q1012 BECMG 26015G25KT
  • 011500Z AUTO 25016G27KT 220V280 CAVOK 17/03 Q1012 NOSIG

TAF TAF LFMD
Valide du 01 à 15h jusqu'au 02 à 15h UTC


011400Z 0115/0215 26015G25KT CAVOK
TEMPO 0200/0207 36005KT
TEMPO 0212/0215 09010KT
ATIS : +33 4 93 48 73 23
Pas de NOTAMs connus pour ce terrain.
6 SIGMETs publiés pour la FIR Marseille (LFMM) :
 
Onde orographique forte
LFMM SIGMET 17 VALID 011800/012200 LFPW
LFMM MARSEILLE FIR/UIR SEV MTW FCST E OF E00845 SFC/FL250 STNR NC=
Onde orographique forte
LFMM SIGMET 16 VALID 011800/012200 LFPW
LFMM MARSEILLE FIR/UIR SEV MTW FCST WI N4600 E00700 - N4400 E00700 - N4400 E00715 - N4330 E00700 - N4400 E00615 - N4600 E00645 SFC/FL200 STNR NC=
Turbulence forte
LFMM SIGMET 15 VALID 011800/012200 LFPW
LFMM MARSEILLE FIR/UIR SEV TURB OBS WI N4345 E00730 - N4315 E00945 - N4115 E00945 - N4115 E00845 - N4300 E00600 - N4345 E00645 SFC/FL050 STNR NC=
Onde orographique forte
LFMM SIGMET 14 VALID 011500/011800 LFPW
LFMM MARSEILLE FIR/UIR SEV MTW FCST E OF E00845 SFC/FL250 STNR NC=
Onde orographique forte
LFMM SIGMET 13 VALID 011500/011800 LFPW
LFMM MARSEILLE FIR/UIR SEV MTW FCST WI N4600 E00700 - N4400 E00700 - N4400 E00715 - N4330 E00700 - N4400 E00615 - N4600 E00645 SFC/FL200 STNR NC=
Turbulence forte
LFMM SIGMET 12 VALID 011500/011800 LFPW
LFMM MARSEILLE FIR/UIR SEV TURB OBS WI N4345 E00730 - N4315 E00945 - N4115 E00945 - N4115 E00900 - N4300 E00630 SFC/FL050 STNR NC=



MET'MAP, la Météo Aéronautique d'un coup d'oeil ! - Copyright ORBIFLY Décembre 2007 - Disclaimer

ORBIFLY MET'MAP TEAM :

Programmation & Développement : Alexandra Zaïnal
Conception & Développement : Baudouin d'Aumeries
Co-Programmation & Développement : Marc-Olivier Méhu
Soutien technique & logistique : Manuel Goepfert

Contact : metmap@orbifly.com




SOURCES & CREDITS :

   NOAA